EYVI

Vilnius International Airport

Vilnius, Lithuania
METAR EYVI 181720Z 17003KT CAVOK 18/10 Q1019 NOSIG
Observed Flight Rules
Sep-18 @ 17:20 UTC (12 minutes ago) Visual Flight Rules
Wind Visibility Clouds
170° at 3 knots 10,000+ meters
  • Clear skies
Temperatures Readings
Current 18°C / 64°F
Dewpoint 10°C / 50°F
Humidity 60%
Altimeter 30.09" Hg
Pressure 1019 hPa
Elevation 197
METAR EYVI 181720Z 17003KT CAVOK 18/10 Q1019 NOSIG
Observed Flight Rules
Sep-18 @ 17:20 UTC
(12 minutes ago)
VFR
Wind Visibility
170° at 3 knots 10,000+ meters
Clouds
  • Clear skies
Temperature Dewpoint
18°C / 64°F 10°C / 50°F
Humidity Altimeter Pressure
60% 30.09" Hg 1019 hPa